createdAt,value
2022-08-28T00:00:30.684Z,101476.53
2022-08-28T00:02:58.634Z,101475.84
2022-08-28T00:05:29.299Z,101464.22
2022-08-28T00:07:57.935Z,101461.19
2022-08-28T00:10:26.919Z,101451.25
2022-08-28T00:12:57.537Z,101444.34
2022-08-28T00:15:32.424Z,101446.19
2022-08-28T00:18:00.920Z,101436.56
2022-08-28T00:20:29.296Z,101432.88
2022-08-28T00:22:57.608Z,101431.72
2022-08-28T00:25:27.375Z,101434.41
2022-08-28T00:27:57.575Z,101431.69
2022-08-28T00:30:26.010Z,101435.06
2022-08-28T00:32:55.951Z,101429.69
2022-08-28T00:35:24.557Z,101438.44
2022-08-28T00:37:55.018Z,101437.78
2022-08-28T00:40:28.751Z,101440.97
2022-08-28T00:43:04.985Z,101430.53
2022-08-28T00:45:39.281Z,101428.22
2022-08-28T00:48:08.303Z,101433.59
2022-08-28T00:51:00.494Z,101439.16
2022-08-28T00:53:33.047Z,101434.63
2022-08-28T00:56:08.633Z,101427.38
2022-08-28T00:58:43.786Z,101436.81
2022-08-28T01:01:13.171Z,101427.03
2022-08-28T01:03:43.537Z,101439.50
2022-08-28T01:06:14.902Z,101430.22
2022-08-28T01:08:46.293Z,101434.97
2022-08-28T01:11:19.705Z,101433.78
2022-08-28T01:13:48.734Z,101437.00
2022-08-28T01:16:19.285Z,101434.28
2022-08-28T01:18:48.379Z,101431.09
2022-08-28T01:21:22.049Z,101422.50
2022-08-28T01:24:02.109Z,101437.47
2022-08-28T01:26:29.892Z,101422.31
2022-08-28T01:29:01.763Z,101432.59
2022-08-28T01:31:31.700Z,101434.97
2022-08-28T01:33:59.508Z,101433.63
2022-08-28T01:36:29.154Z,101422.50
2022-08-28T01:39:02.824Z,101424.34
2022-08-28T01:41:30.928Z,101413.72
2022-08-28T01:43:59.308Z,101421.50
2022-08-28T01:46:27.294Z,101416.94
2022-08-28T01:48:55.024Z,101417.91
2022-08-28T01:51:24.597Z,101416.56
2022-08-28T01:53:52.824Z,101423.09
2022-08-28T01:56:20.909Z,101428.16
2022-08-28T01:58:48.706Z,101420.41
2022-08-28T02:01:21.329Z,101425.78
2022-08-28T02:03:49.881Z,101408.13
2022-08-28T02:06:17.976Z,101411.66
2022-08-28T02:08:46.835Z,101400.88
2022-08-28T02:11:15.209Z,101403.09
2022-08-28T02:13:43.069Z,101401.41
2022-08-28T02:16:11.480Z,101396.03
2022-08-28T02:18:39.619Z,101399.38
2022-08-28T02:21:08.481Z,101396.16
2022-08-28T02:23:38.243Z,101389.13
2022-08-28T02:26:06.743Z,101400.56
2022-08-28T02:28:34.893Z,101399.38
2022-08-28T02:31:02.689Z,101400.56
2022-08-28T02:33:30.206Z,101397.19
2022-08-28T02:35:57.782Z,101387.75
2022-08-28T02:38:25.354Z,101382.53
2022-08-28T02:40:52.919Z,101387.59
2022-08-28T02:43:20.412Z,101391.81
2022-08-28T02:45:49.408Z,101390.44
2022-08-28T02:48:17.624Z,101385.56
2022-08-28T02:50:46.596Z,101385.75
2022-08-28T02:53:14.268Z,101387.59
2022-08-28T02:55:41.762Z,101383.41
2022-08-28T02:58:09.926Z,101383.91
2022-08-28T03:00:37.728Z,101377.66
2022-08-28T03:03:05.435Z,101373.47
2022-08-28T03:05:33.242Z,101376.66
2022-08-28T03:08:01.073Z,101376.66
2022-08-28T03:10:28.701Z,101373.47
2022-08-28T03:12:56.175Z,101363.88
2022-08-28T03:15:23.935Z,101371.94
2022-08-28T03:17:51.528Z,101365.72
2022-08-28T03:20:19.244Z,101357.84
2022-08-28T03:23:05.637Z,101355.47
2022-08-28T03:25:33.277Z,101359.50
2022-08-28T03:28:01.673Z,101347.03
2022-08-28T03:30:29.515Z,101359.66
2022-08-28T03:32:57.024Z,101353.13
2022-08-28T03:35:24.683Z,101349.06
2022-08-28T03:37:52.815Z,101353.78
2022-08-28T03:40:20.571Z,101353.94
2022-08-28T03:42:53.033Z,101361.22
2022-08-28T03:45:22.086Z,101363.41
2022-08-28T03:47:50.851Z,101359.34
2022-08-28T03:50:19.768Z,101353.28
2022-08-28T03:52:47.697Z,101360.19
2022-08-28T03:55:16.787Z,101360.88
2022-08-28T03:57:44.551Z,101357.16
2022-08-28T04:00:13.358Z,101362.00
2022-08-28T04:02:42.822Z,101366.25
2022-08-28T04:05:11.297Z,101356.63
2022-08-28T04:07:40.169Z,101359.13
2022-08-28T04:10:08.079Z,101350.22
2022-08-28T04:12:36.994Z,101349.03
2022-08-28T04:15:06.963Z,101346.00
2022-08-28T04:17:37.985Z,101350.41
2022-08-28T04:20:07.167Z,101354.25
2022-08-28T04:22:35.485Z,101343.81
2022-08-28T04:25:04.198Z,101348.72
2022-08-28T04:27:32.033Z,101347.03
2022-08-28T04:29:59.579Z,101347.56
2022-08-28T04:32:27.176Z,101347.56
2022-08-28T04:34:54.750Z,101350.38
2022-08-28T04:37:22.946Z,101343.03
2022-08-28T04:39:55.697Z,101340.31
2022-08-28T04:42:23.477Z,101341.31
2022-08-28T04:44:51.160Z,101341.69
2022-08-28T04:47:18.635Z,101337.94
2022-08-28T04:49:46.136Z,101327.69
2022-08-28T04:52:13.662Z,101333.91
2022-08-28T04:54:41.375Z,101334.56
2022-08-28T04:57:08.938Z,101324.47
2022-08-28T04:59:37.111Z,101326.69
2022-08-28T05:02:05.723Z,101327.53
2022-08-28T05:04:33.207Z,101326.84
2022-08-28T05:07:00.845Z,101327.16
2022-08-28T05:09:28.724Z,101327.16
2022-08-28T05:11:56.567Z,101326.44
2022-08-28T05:14:24.282Z,101323.84
2022-08-28T05:16:53.091Z,101327.69
2022-08-28T05:19:21.621Z,101325.78
2022-08-28T05:21:49.133Z,101327.78
2022-08-28T05:24:17.309Z,101329.75
2022-08-28T05:26:48.293Z,101325.09
2022-08-28T05:29:17.693Z,101317.91
2022-08-28T05:31:46.382Z,101320.13
2022-08-28T05:34:15.243Z,101322.81
2022-08-28T05:36:43.069Z,101323.03
2022-08-28T05:39:11.880Z,101318.13
2022-08-28T05:41:41.907Z,101318.53
2022-08-28T05:44:11.757Z,101317.91
2022-08-28T05:46:42.643Z,101312.22
2022-08-28T05:49:10.679Z,101321.31
2022-08-28T05:51:41.272Z,101322.88
2022-08-28T05:54:09.744Z,101322.03
2022-08-28T05:56:39.461Z,101320.34
2022-08-28T05:59:07.696Z,101330.78
2022-08-28T06:01:41.293Z,101322.34
2022-08-28T06:04:19.104Z,101318.53
2022-08-28T06:06:46.922Z,101322.06
2022-08-28T06:09:20.159Z,101326.19
2022-08-28T06:11:49.723Z,101321.28
2022-08-28T06:14:20.636Z,101317.41
2022-08-28T06:16:53.052Z,101317.34
2022-08-28T06:19:23.116Z,101311.84
2022-08-28T06:21:53.941Z,101316.50
2022-08-28T06:24:21.619Z,101313.28
2022-08-28T06:26:49.434Z,101317.09
2022-08-28T06:29:21.022Z,101319.72
2022-08-28T06:31:55.250Z,101329.31
2022-08-28T06:34:23.089Z,101332.97
2022-08-28T06:36:54.032Z,101328.72
2022-08-28T06:39:22.517Z,101327.94
2022-08-28T06:41:50.455Z,101320.03
2022-08-28T06:44:20.247Z,101317.72
2022-08-28T06:46:50.121Z,101317.97
2022-08-28T06:49:17.939Z,101320.59
2022-08-28T06:51:45.673Z,101316.44
2022-08-28T06:54:17.268Z,101322.81
2022-08-28T06:56:49.232Z,101331.16
2022-08-28T06:59:16.831Z,101331.56
2022-08-28T07:01:44.723Z,101336.28
2022-08-28T07:04:14.574Z,101332.50
2022-08-28T07:06:47.091Z,101330.44
2022-08-28T07:09:16.105Z,101334.91
2022-08-28T07:11:46.862Z,101334.53
2022-08-28T07:14:14.345Z,101330.69
2022-08-28T07:16:42.201Z,101341.19
2022-08-28T07:19:12.041Z,101329.97
2022-08-28T07:21:42.536Z,101335.56
2022-08-28T07:24:12.417Z,101327.22
2022-08-28T07:26:41.836Z,101342.56
2022-08-28T07:29:11.456Z,101345.41
2022-08-28T07:31:44.998Z,101333.34
2022-08-28T07:34:14.010Z,101329.72
2022-08-28T07:36:42.690Z,101337.34
2022-08-28T07:39:12.907Z,101330.09
2022-08-28T07:41:42.797Z,101328.53
2022-08-28T07:44:32.020Z,101327.00
2022-08-28T07:47:04.123Z,101320.38
2022-08-28T07:49:33.875Z,101332.78
2022-08-28T07:52:02.301Z,101334.59
2022-08-28T07:54:30.014Z,101334.31
2022-08-28T07:56:57.845Z,101345.91
2022-08-28T07:59:25.465Z,101346.75
2022-08-28T08:01:53.864Z,101346.91
2022-08-28T08:04:23.695Z,101343.09
2022-08-28T08:06:58.095Z,101345.13
2022-08-28T08:09:27.140Z,101346.19
2022-08-28T08:11:55.154Z,101340.81
2022-08-28T08:14:23.500Z,101341.31
2022-08-28T08:16:52.556Z,101343.31
2022-08-28T08:19:20.611Z,101338.19
2022-08-28T08:21:54.870Z,101334.41
2022-08-28T08:24:28.494Z,101337.22
2022-08-28T08:27:01.149Z,101334.44
2022-08-28T08:29:35.892Z,101334.34
2022-08-28T08:32:09.979Z,101324.66
2022-08-28T08:34:40.511Z,101332.69
2022-08-28T08:37:08.569Z,101325.09
2022-08-28T08:39:37.699Z,101329.22
2022-08-28T08:42:17.662Z,101331.25
2022-08-28T08:44:48.413Z,101323.44
2022-08-28T08:47:22.595Z,101321.81
2022-08-28T08:50:01.206Z,101326.09
2022-08-28T08:52:47.583Z,101336.47
2022-08-28T08:55:21.124Z,101328.19
2022-08-28T08:57:53.582Z,101334.06
2022-08-28T09:00:21.235Z,101337.19
2022-08-28T09:03:09.881Z,101330.25
2022-08-28T09:06:02.115Z,101329.69
2022-08-28T09:09:00.479Z,101330.72
2022-08-28T09:11:34.318Z,101328.88
2022-08-28T09:14:26.537Z,101331.63
2022-08-28T09:16:58.362Z,101325.56
2022-08-28T09:19:26.481Z,101324.53
2022-08-28T09:21:54.471Z,101320.75
2022-08-28T09:24:30.617Z,101320.97
2022-08-28T09:27:23.865Z,101320.34
2022-08-28T09:30:07.600Z,101318.06
2022-08-28T09:32:44.416Z,101311.56
2022-08-28T09:35:30.011Z,101313.88
2022-08-28T09:38:20.717Z,101305.28
2022-08-28T09:41:07.122Z,101308.22
2022-08-28T09:43:38.007Z,101308.22
2022-08-28T09:46:22.486Z,101304.44
2022-08-28T09:48:52.542Z,101297.34
2022-08-28T09:51:22.844Z,101303.41
2022-08-28T09:53:56.577Z,101301.94
2022-08-28T09:56:36.479Z,101302.38
2022-08-28T09:59:16.296Z,101298.81
2022-08-28T10:01:48.880Z,101303.00
2022-08-28T10:04:58.938Z,101300.47
2022-08-28T10:07:29.505Z,101300.09
2022-08-28T10:10:17.080Z,101304.06
2022-08-28T10:12:54.169Z,101315.19
2022-08-28T10:15:49.606Z,101308.47
2022-08-28T10:18:32.231Z,101307.84
2022-08-28T10:21:30.566Z,101303.22
2022-08-28T10:24:13.515Z,101299.44
2022-08-28T10:27:08.776Z,101302.41
2022-08-28T10:30:12.495Z,101306.59
2022-08-28T10:32:55.321Z,101308.50
2022-08-28T10:35:48.871Z,101306.63
2022-08-28T10:38:32.457Z,101305.13
2022-08-28T10:41:10.355Z,101304.28
2022-08-28T10:43:51.609Z,101301.59
2022-08-28T10:46:37.554Z,101303.41
2022-08-28T10:49:27.103Z,101308.81
2022-08-28T10:51:59.660Z,101311.97
2022-08-28T10:55:03.446Z,101312.13
2022-08-28T10:57:41.639Z,101314.81
2022-08-28T11:00:19.380Z,101308.31
2022-08-28T11:02:54.479Z,101309.59
2022-08-28T11:05:24.817Z,101306.06
2022-08-28T11:07:59.680Z,101317.16
2022-08-28T11:10:30.238Z,101309.63
2022-08-28T11:12:58.751Z,101297.66
2022-08-28T11:15:36.341Z,101302.47
2022-08-28T11:18:25.334Z,101299.13
2022-08-28T11:21:11.109Z,101295.13
2022-08-28T11:23:47.802Z,101307.94
2022-08-28T11:26:30.293Z,101305.88
2022-08-28T11:29:00.911Z,101309.25
2022-08-28T11:31:32.635Z,101304.66
2022-08-28T11:34:02.550Z,101301.94
2022-08-28T11:36:30.065Z,101296.91
2022-08-28T11:38:58.248Z,101296.50
2022-08-28T11:41:50.683Z,101291.94
2022-08-28T11:44:25.615Z,101298.22
2022-08-28T11:46:56.815Z,101310.22
2022-08-28T11:49:31.953Z,101298.50
2022-08-28T11:52:17.791Z,101288.88
2022-08-28T11:54:54.384Z,101287.59
2022-08-28T11:57:40.882Z,101283.16
2022-08-28T12:00:32.961Z,101281.72
2022-08-28T12:03:06.792Z,101281.34
2022-08-28T12:05:39.984Z,101289.75
2022-08-28T12:08:09.774Z,101297.03
2022-08-28T12:10:37.223Z,101314.56
2022-08-28T12:13:07.560Z,101307.06
2022-08-28T12:15:35.015Z,101294.50
2022-08-28T12:18:14.954Z,101299.94
2022-08-28T12:20:51.522Z,101285.97
2022-08-28T12:23:31.732Z,101293.69
2022-08-28T12:26:04.251Z,101297.50
2022-08-28T12:28:45.695Z,101300.19
2022-08-28T12:31:59.195Z,101299.78
2022-08-28T12:34:42.147Z,101284.44
2022-08-28T12:37:50.981Z,101284.22
2022-08-28T12:40:26.395Z,101273.94
2022-08-28T12:43:00.340Z,101265.94
2022-08-28T12:46:00.333Z,101259.41
2022-08-28T12:48:31.715Z,101264.41
2022-08-28T12:51:04.217Z,101264.84
2022-08-28T12:53:42.050Z,101267.59
2022-08-28T12:56:14.532Z,101274.06
2022-08-28T12:58:43.887Z,101265.31
2022-08-28T13:01:37.548Z,101260.91
2022-08-28T13:04:25.545Z,101249.81
2022-08-28T13:07:00.375Z,101262.78
2022-08-28T13:09:29.253Z,101271.63
2022-08-28T13:11:57.057Z,101274.16
2022-08-28T13:14:43.916Z,101272.13
2022-08-28T13:17:13.709Z,101267.13
2022-08-28T13:19:41.597Z,101264.81
2022-08-28T13:22:33.852Z,101251.78
2022-08-28T13:25:05.387Z,101255.78
2022-08-28T13:27:33.227Z,101244.03
2022-08-28T13:30:20.879Z,101243.63
2022-08-28T13:33:02.501Z,101258.13
2022-08-28T13:35:39.114Z,101266.28
2022-08-28T13:38:10.367Z,101265.03
2022-08-28T13:41:03.101Z,101246.81
2022-08-28T13:43:44.567Z,101255.16
2022-08-28T13:46:12.396Z,101245.09
2022-08-28T13:48:40.880Z,101249.25
2022-08-28T13:51:12.008Z,101247.41
2022-08-28T13:53:44.292Z,101251.84
2022-08-28T13:56:12.522Z,101257.72
2022-08-28T13:58:40.259Z,101273.19
2022-08-28T14:01:08.086Z,101275.72
2022-08-28T14:03:35.799Z,101282.38
2022-08-28T14:06:05.064Z,101312.88
2022-08-28T14:08:32.985Z,101305.78
2022-08-28T14:11:01.771Z,101309.94
2022-08-28T14:13:29.543Z,101295.31
2022-08-28T14:15:58.065Z,101281.59
2022-08-28T14:18:26.299Z,101298.84
2022-08-28T14:20:53.959Z,101310.56
2022-08-28T14:23:21.681Z,101294.56
2022-08-28T14:25:51.043Z,101295.56
2022-08-28T14:28:18.839Z,101284.31
2022-08-28T14:30:50.275Z,101245.84
2022-08-28T14:33:20.598Z,101239.00
2022-08-28T14:35:49.281Z,101224.28
2022-08-28T14:38:17.402Z,101226.56
2022-08-28T14:40:45.420Z,101207.44
2022-08-28T14:43:14.430Z,101203.66
2022-08-28T14:48:18.841Z,101211.75
2022-08-28T14:50:50.066Z,101220.94
2022-08-28T14:53:18.114Z,101210.16
2022-08-28T14:55:49.192Z,101216.16
2022-08-28T14:58:19.213Z,101214.13
2022-08-28T15:00:50.505Z,101209.97
2022-08-28T15:03:19.709Z,101210.41
2022-08-28T15:05:47.935Z,101206.06
2022-08-28T15:08:17.511Z,101203.97
2022-08-28T15:10:45.277Z,101204.81
2022-08-28T15:13:13.410Z,101206.91
2022-08-28T15:15:43.354Z,101211.09
2022-08-28T15:18:11.948Z,101212.34
2022-08-28T15:20:42.312Z,101210.66
2022-08-28T15:23:11.539Z,101203.16
2022-08-28T15:25:39.541Z,101207.94
2022-08-28T15:28:08.398Z,101212.53
2022-08-28T15:30:36.972Z,101205.81
2022-08-28T15:33:05.293Z,101200.75
2022-08-28T15:35:34.527Z,101210.53
2022-08-28T15:38:02.720Z,101219.06
2022-08-28T15:40:49.459Z,101227.56
2022-08-28T15:43:17.427Z,101230.69
2022-08-28T15:45:46.226Z,101222.91
2022-08-28T15:48:14.021Z,101216.00
2022-08-28T15:50:42.045Z,101221.47
2022-08-28T15:53:10.348Z,101216.22
2022-08-28T15:55:37.906Z,101216.84
2022-08-28T16:00:41.091Z,101213.88
2022-08-28T16:03:08.864Z,101208.03
2022-08-28T16:05:39.613Z,101215.94
2022-08-28T16:08:10.045Z,101212.97
2022-08-28T16:10:38.066Z,101212.53
2022-08-28T16:13:06.765Z,101201.69
2022-08-28T16:15:34.837Z,101201.88
2022-08-28T16:18:02.414Z,101202.25
2022-08-28T16:20:29.946Z,101198.88
2022-08-28T16:22:57.469Z,101200.69
2022-08-28T16:25:24.979Z,101193.81
2022-08-28T16:27:52.542Z,101195.50
2022-08-28T16:30:21.204Z,101199.50
2022-08-28T16:32:52.350Z,101196.34
2022-08-28T16:35:22.130Z,101196.34
2022-08-28T16:37:50.439Z,101199.22
2022-08-28T16:40:18.455Z,101196.00
2022-08-28T16:42:51.570Z,101184.97
2022-08-28T16:45:20.405Z,101190.41
2022-08-28T16:47:49.134Z,101188.66
2022-08-28T16:50:16.691Z,101194.50
2022-08-28T16:52:44.458Z,101195.72
2022-08-28T16:55:13.282Z,101195.91
2022-08-28T16:57:41.285Z,101196.53
2022-08-28T17:00:13.533Z,101195.06
2022-08-28T17:02:42.488Z,101201.16
2022-08-28T17:05:13.088Z,101201.38
2022-08-28T17:07:41.127Z,101195.28
2022-08-28T17:10:10.697Z,101201.44
2022-08-28T17:12:39.365Z,101199.66
2022-08-28T17:15:08.726Z,101194.06
2022-08-28T17:17:40.051Z,101184.13
2022-08-28T17:20:29.363Z,101186.66
2022-08-28T17:22:57.186Z,101191.63
2022-08-28T17:25:25.933Z,101189.56
2022-08-28T17:27:53.770Z,101192.88
2022-08-28T17:30:21.929Z,101185.09
2022-08-28T17:32:50.057Z,101201.22
2022-08-28T17:35:18.152Z,101199.91
2022-08-28T17:37:45.976Z,101198.41
2022-08-28T17:40:16.782Z,101203.13
2022-08-28T17:42:48.025Z,101201.41
2022-08-28T17:45:15.945Z,101207.59
2022-08-28T17:47:43.614Z,101207.66
2022-08-28T17:50:11.926Z,101223.22
2022-08-28T17:52:43.112Z,101219.91
2022-08-28T17:55:10.876Z,101241.25
2022-08-28T17:57:38.732Z,101246.09
2022-08-28T18:00:09.266Z,101234.63
2022-08-28T18:02:37.052Z,101242.94
2022-08-28T18:05:05.724Z,101241.16
2022-08-28T18:07:33.992Z,101240.16
2022-08-28T18:10:01.915Z,101240.69
2022-08-28T18:12:30.343Z,101240.78
2022-08-28T18:14:58.084Z,101239.22
2022-08-28T18:17:25.733Z,101246.56
2022-08-28T18:19:54.208Z,101242.47
2022-08-28T18:22:23.661Z,101247.88
2022-08-28T18:24:54.493Z,101243.84
2022-08-28T18:27:22.818Z,101246.41
2022-08-28T18:29:50.657Z,101251.34
2022-08-28T18:32:19.202Z,101257.75
2022-08-28T18:34:46.958Z,101259.53
2022-08-28T18:37:14.753Z,101266.25
2022-08-28T18:39:43.228Z,101274.53
2022-08-28T18:42:11.939Z,101267.38
2022-08-28T18:44:39.693Z,101256.19
2022-08-28T18:47:07.464Z,101256.28
2022-08-28T18:49:35.215Z,101262.16
2022-08-28T18:52:03.386Z,101265.34
2022-08-28T18:54:31.399Z,101267.19
2022-08-28T18:57:03.921Z,101268.88
2022-08-28T18:59:33.391Z,101264.13
2022-08-28T19:02:01.711Z,101267.72
2022-08-28T19:04:29.516Z,101254.97
2022-08-28T19:06:57.391Z,101255.13
2022-08-28T19:09:32.102Z,101254.06
2022-08-28T19:12:01.043Z,101258.72
2022-08-28T19:14:28.892Z,101261.75
2022-08-28T19:16:56.838Z,101262.50
2022-08-28T19:19:24.839Z,101257.09
2022-08-28T19:21:52.560Z,101251.38
2022-08-28T19:24:22.621Z,101256.09
2022-08-28T19:26:50.254Z,101245.66
2022-08-28T19:29:18.152Z,101254.13
2022-08-28T19:31:46.562Z,101254.19
2022-08-28T19:34:14.439Z,101243.44
2022-08-28T19:36:42.453Z,101253.22
2022-08-28T19:39:10.314Z,101256.66
2022-08-28T19:41:38.910Z,101253.94
2022-08-28T19:44:07.596Z,101268.31
2022-08-28T19:46:36.315Z,101264.72
2022-08-28T19:49:04.959Z,101270.97
2022-08-28T19:51:33.045Z,101265.84
2022-08-28T19:54:00.876Z,101264.97
2022-08-28T19:56:30.399Z,101274.81
2022-08-28T19:59:01.476Z,101269.78
2022-08-28T20:01:32.829Z,101262.28
2022-08-28T20:04:00.715Z,101270.63
2022-08-28T20:06:31.617Z,101268.78
2022-08-28T20:09:01.305Z,101268.41
2022-08-28T20:11:30.428Z,101270.75
2022-08-28T20:14:04.439Z,101267.13
2022-08-28T20:16:37.000Z,101265.09
2022-08-28T20:19:07.848Z,101263.53
2022-08-28T20:21:38.323Z,101266.47
2022-08-28T20:24:10.315Z,101264.91
2022-08-28T20:26:38.157Z,101269.91
2022-08-28T20:29:07.880Z,101266.88
2022-08-28T20:31:40.548Z,101260.75
2022-08-28T20:34:09.830Z,101262.41
2022-08-28T20:36:37.783Z,101256.75
2022-08-28T20:39:07.411Z,101262.06
2022-08-28T20:41:37.257Z,101255.28
2022-08-28T20:44:07.730Z,101254.28
2022-08-28T20:46:40.685Z,101241.53
2022-08-28T20:49:11.242Z,101245.72
2022-08-28T20:51:53.153Z,101245.34
2022-08-28T20:54:24.465Z,101248.72
2022-08-28T20:56:53.593Z,101239.06
2022-08-28T20:59:21.891Z,101249.88
2022-08-28T21:01:51.477Z,101248.34
2022-08-28T21:04:19.885Z,101243.31
2022-08-28T21:06:47.677Z,101245.34
2022-08-28T21:09:16.433Z,101234.06
2022-08-28T21:11:44.157Z,101244.75
2022-08-28T21:14:11.949Z,101243.75
2022-08-28T21:16:40.539Z,101246.13
2022-08-28T21:19:16.694Z,101244.09
2022-08-28T21:21:45.378Z,101247.28
2022-08-28T21:24:15.441Z,101245.03
2022-08-28T21:26:48.644Z,101244.59
2022-08-28T21:29:20.023Z,101239.34
2022-08-28T21:31:50.160Z,101238.03
2022-08-28T21:34:19.500Z,101235.56
2022-08-28T21:36:50.565Z,101231.66
2022-08-28T21:39:20.720Z,101230.00
2022-08-28T21:41:49.451Z,101231.56
2022-08-28T21:44:17.662Z,101229.69
2022-08-28T21:46:45.666Z,101227.00
2022-08-28T21:49:13.215Z,101224.78
2022-08-28T21:51:40.856Z,101223.75
2022-08-28T21:54:08.669Z,101217.38
2022-08-28T21:56:36.229Z,101215.69
2022-08-28T21:59:04.087Z,101205.28
2022-08-28T22:01:32.133Z,101210.88
2022-08-28T22:03:59.787Z,101208.22
2022-08-28T22:06:27.347Z,101202.59
2022-08-28T22:08:55.987Z,101203.56
2022-08-28T22:11:25.419Z,101198.69
2022-08-28T22:13:56.896Z,101200.81
2022-08-28T22:16:25.671Z,101198.16
2022-08-28T22:18:53.815Z,101197.06
2022-08-28T22:21:43.775Z,101182.69
2022-08-28T22:24:13.341Z,101188.25
2022-08-28T22:26:42.533Z,101187.00
2022-08-28T22:29:11.541Z,101195.06
2022-08-28T22:31:43.898Z,101188.13
2022-08-28T22:34:13.818Z,101190.16
2022-08-28T22:36:41.405Z,101182.38
2022-08-28T22:39:09.362Z,101179.69
2022-08-28T22:41:37.644Z,101184.50
2022-08-28T22:44:05.499Z,101184.97
2022-08-28T22:46:33.252Z,101180.53
2022-08-28T22:49:00.924Z,101179.50
2022-08-28T22:51:28.430Z,101187.63
2022-08-28T22:53:56.436Z,101174.28
2022-08-28T22:56:23.991Z,101178.66
2022-08-28T22:58:51.459Z,101183.41
2022-08-28T23:01:22.302Z,101196.22
2022-08-28T23:03:50.232Z,101201.25
2022-08-28T23:06:18.568Z,101205.00
2022-08-28T23:08:46.096Z,101195.53
2022-08-28T23:11:13.800Z,101190.31
2022-08-28T23:13:41.448Z,101177.66
2022-08-28T23:16:09.012Z,101171.34
2022-08-28T23:19:06.014Z,101170.53
2022-08-28T23:21:26.444Z,101171.53
2022-08-28T23:23:55.137Z,101167.34
2022-08-28T23:26:23.102Z,101177.78
2022-08-28T23:28:51.145Z,101181.31
2022-08-28T23:31:18.861Z,101185.88
2022-08-28T23:33:47.048Z,101189.41
2022-08-28T23:36:15.391Z,101191.13
2022-08-28T23:38:45.054Z,101181.53
2022-08-28T23:41:13.318Z,101174.97
2022-08-28T23:43:40.948Z,101170.28
2022-08-28T23:46:13.546Z,101167.66
2022-08-28T23:48:41.411Z,101169.88
2022-08-28T23:51:10.139Z,101173.91
2022-08-28T23:53:40.936Z,101168.81
2022-08-28T23:56:09.582Z,101179.59
2022-08-28T23:58:37.331Z,101184.84
